sensor_id;sensor_type;location;lat;lon;timestamp;temperature;humidity
44607;DHT22;30315;46.072;14.474;2022-11-18T00:02:07;12.90;94.00
44607;DHT22;30315;46.072;14.474;2022-11-18T00:04:34;12.90;93.90
44607;DHT22;30315;46.072;14.474;2022-11-18T00:07:01;12.80;93.90
44607;DHT22;30315;46.072;14.474;2022-11-18T00:09:28;12.80;94.00
44607;DHT22;30315;46.072;14.474;2022-11-18T00:11:54;12.90;94.30
44607;DHT22;30315;46.072;14.474;2022-11-18T00:14:40;12.80;93.90
44607;DHT22;30315;46.072;14.474;2022-11-18T00:17:07;12.50;93.80
44607;DHT22;30315;46.072;14.474;2022-11-18T00:19:35;12.80;93.90
44607;DHT22;30315;46.072;14.474;2022-11-18T00:22:03;12.80;93.90
44607;DHT22;30315;46.072;14.474;2022-11-18T00:24:30;12.80;93.90
44607;DHT22;30315;46.072;14.474;2022-11-18T00:26:57;12.80;93.90
44607;DHT22;30315;46.072;14.474;2022-11-18T00:29:24;12.80;94.00
44607;DHT22;30315;46.072;14.474;2022-11-18T00:31:54;12.80;93.90
44607;DHT22;30315;46.072;14.474;2022-11-18T00:34:22;12.90;93.90
44607;DHT22;30315;46.072;14.474;2022-11-18T00:36:49;12.80;93.90
44607;DHT22;30315;46.072;14.474;2022-11-18T00:39:17;12.80;93.80
44607;DHT22;30315;46.072;14.474;2022-11-18T00:41:45;12.80;93.80
44607;DHT22;30315;46.072;14.474;2022-11-18T00:44:31;12.80;93.80
44607;DHT22;30315;46.072;14.474;2022-11-18T00:46:58;12.80;93.90
44607;DHT22;30315;46.072;14.474;2022-11-18T00:49:25;12.80;93.80
44607;DHT22;30315;46.072;14.474;2022-11-18T00:51:52;13.20;94.00
44607;DHT22;30315;46.072;14.474;2022-11-18T00:54:19;12.80;93.70
44607;DHT22;30315;46.072;14.474;2022-11-18T00:56:46;12.70;93.70
44607;DHT22;30315;46.072;14.474;2022-11-18T00:59:13;12.80;93.70
44607;DHT22;30315;46.072;14.474;2022-11-18T01:01:40;12.80;93.70
44607;DHT22;30315;46.072;14.474;2022-11-18T01:04:07;12.80;93.60
44607;DHT22;30315;46.072;14.474;2022-11-18T01:06:34;12.80;93.60
44607;DHT22;30315;46.072;14.474;2022-11-18T01:09:01;12.70;93.40
44607;DHT22;30315;46.072;14.474;2022-11-18T01:11:27;12.70;93.40
44607;DHT22;30315;46.072;14.474;2022-11-18T01:14:13;12.70;93.40
44607;DHT22;30315;46.072;14.474;2022-11-18T01:16:40;12.70;93.50
44607;DHT22;30315;46.072;14.474;2022-11-18T01:19:07;12.40;93.40
44607;DHT22;30315;46.072;14.474;2022-11-18T01:21:34;12.70;93.60
44607;DHT22;30315;46.072;14.474;2022-11-18T01:24:01;12.70;93.60
44607;DHT22;30315;46.072;14.474;2022-11-18T01:26:27;12.60;93.60
44607;DHT22;30315;46.072;14.474;2022-11-18T01:28:55;12.70;93.50
44607;DHT22;30315;46.072;14.474;2022-11-18T01:31:23;12.70;93.50
44607;DHT22;30315;46.072;14.474;2022-11-18T01:33:50;12.70;93.40
44607;DHT22;30315;46.072;14.474;2022-11-18T01:36:22;12.70;93.40
44607;DHT22;30315;46.072;14.474;2022-11-18T01:38:49;12.70;93.30
44607;DHT22;30315;46.072;14.474;2022-11-18T01:41:17;12.60;93.30
44607;DHT22;30315;46.072;14.474;2022-11-18T01:46:14;12.70;93.60
44607;DHT22;30315;46.072;14.474;2022-11-18T01:48:41;12.70;93.60
44607;DHT22;30315;46.072;14.474;2022-11-18T01:51:09;12.70;93.70
44607;DHT22;30315;46.072;14.474;2022-11-18T01:54:13;12.60;93.60
44607;DHT22;30315;46.072;14.474;2022-11-18T01:56:36;12.70;93.70
44607;DHT22;30315;46.072;14.474;2022-11-18T01:59:05;12.70;93.80
44607;DHT22;30315;46.072;14.474;2022-11-18T02:01:33;12.70;93.80
44607;DHT22;30315;46.072;14.474;2022-11-18T02:04:00;12.70;93.80
44607;DHT22;30315;46.072;14.474;2022-11-18T02:06:27;12.70;93.80
44607;DHT22;30315;46.072;14.474;2022-11-18T02:08:54;12.70;93.90
44607;DHT22;30315;46.072;14.474;2022-11-18T02:11:22;12.70;93.90
44607;DHT22;30315;46.072;14.474;2022-11-18T02:22:20;12.70;93.80
44607;DHT22;30315;46.072;14.474;2022-11-18T02:30:10;12.70;93.80
44607;DHT22;30315;46.072;14.474;2022-11-18T02:33:06;12.90;93.70
44607;DHT22;30315;46.072;14.474;2022-11-18T02:35:49;12.70;93.60
44607;DHT22;30315;46.072;14.474;2022-11-18T02:38:19;12.70;93.60
44607;DHT22;30315;46.072;14.474;2022-11-18T02:40:51;12.70;93.70
44607;DHT22;30315;46.072;14.474;2022-11-18T02:43:23;12.70;93.70
44607;DHT22;30315;46.072;14.474;2022-11-18T02:45:53;12.70;93.70
44607;DHT22;30315;46.072;14.474;2022-11-18T02:48:22;12.70;93.60
44607;DHT22;30315;46.072;14.474;2022-11-18T02:50:50;12.60;93.50
44607;DHT22;30315;46.072;14.474;2022-11-18T02:53:18;12.70;93.50
44607;DHT22;30315;46.072;14.474;2022-11-18T02:55:45;12.50;93.50
44607;DHT22;30315;46.072;14.474;2022-11-18T02:58:13;12.60;93.50
44607;DHT22;30315;46.072;14.474;2022-11-18T03:00:41;12.60;93.40
44607;DHT22;30315;46.072;14.474;2022-11-18T03:11:30;12.60;93.60
44607;DHT22;30315;46.072;14.474;2022-11-18T03:14:27;12.50;93.60
44607;DHT22;30315;46.072;14.474;2022-11-18T03:17:53;12.60;93.70
44607;DHT22;30315;46.072;14.474;2022-11-18T03:25:40;12.60;93.60
44607;DHT22;30315;46.072;14.474;2022-11-18T03:28:49;12.60;93.60
44607;DHT22;30315;46.072;14.474;2022-11-18T03:31:19;12.60;93.60
44607;DHT22;30315;46.072;14.474;2022-11-18T03:33:49;12.70;93.60
44607;DHT22;30315;46.072;14.474;2022-11-18T03:36:18;12.40;93.40
44607;DHT22;30315;46.072;14.474;2022-11-18T03:38:47;12.60;93.40
44607;DHT22;30315;46.072;14.474;2022-11-18T03:41:16;12.60;93.50
44607;DHT22;30315;46.072;14.474;2022-11-18T03:43:48;12.60;93.40
44607;DHT22;30315;46.072;14.474;2022-11-18T03:46:17;12.60;93.60
44607;DHT22;30315;46.072;14.474;2022-11-18T03:48:50;12.50;93.60
44607;DHT22;30315;46.072;14.474;2022-11-18T03:51:35;12.50;93.60
44607;DHT22;30315;46.072;14.474;2022-11-18T03:54:06;12.50;93.80
44607;DHT22;30315;46.072;14.474;2022-11-18T03:56:36;12.40;94.00
44607;DHT22;30315;46.072;14.474;2022-11-18T03:59:07;12.40;94.20
44607;DHT22;30315;46.072;14.474;2022-11-18T04:01:40;12.50;94.50
44607;DHT22;30315;46.072;14.474;2022-11-18T04:04:09;12.50;94.50
44607;DHT22;30315;46.072;14.474;2022-11-18T04:09:14;12.30;94.40
44607;DHT22;30315;46.072;14.474;2022-11-18T04:11:44;12.50;94.50
44607;DHT22;30315;46.072;14.474;2022-11-18T04:14:32;12.70;94.80
44607;DHT22;30315;46.072;14.474;2022-11-18T04:16:59;12.50;94.60
44607;DHT22;30315;46.072;14.474;2022-11-18T04:19:30;12.50;94.60
44607;DHT22;30315;46.072;14.474;2022-11-18T04:21:57;12.60;94.40
44607;DHT22;30315;46.072;14.474;2022-11-18T04:24:24;12.50;94.30
44607;DHT22;30315;46.072;14.474;2022-11-18T04:26:50;12.60;94.40
44607;DHT22;30315;46.072;14.474;2022-11-18T04:29:17;12.50;94.50
44607;DHT22;30315;46.072;14.474;2022-11-18T04:31:44;12.60;94.70
44607;DHT22;30315;46.072;14.474;2022-11-18T04:34:11;12.50;94.70
44607;DHT22;30315;46.072;14.474;2022-11-18T04:36:38;12.50;94.70
44607;DHT22;30315;46.072;14.474;2022-11-18T04:39:05;12.60;94.80
44607;DHT22;30315;46.072;14.474;2022-11-18T04:41:32;12.40;94.70
44607;DHT22;30315;46.072;14.474;2022-11-18T04:44:17;12.60;94.90
44607;DHT22;30315;46.072;14.474;2022-11-18T04:46:45;12.60;94.90
44607;DHT22;30315;46.072;14.474;2022-11-18T04:49:12;12.60;95.00
44607;DHT22;30315;46.072;14.474;2022-11-18T04:51:40;12.60;95.00
44607;DHT22;30315;46.072;14.474;2022-11-18T04:54:07;12.60;95.00
44607;DHT22;30315;46.072;14.474;2022-11-18T04:56:34;12.20;94.90
44607;DHT22;30315;46.072;14.474;2022-11-18T04:59:01;12.60;95.10
44607;DHT22;30315;46.072;14.474;2022-11-18T05:01:29;12.60;95.10
44607;DHT22;30315;46.072;14.474;2022-11-18T05:03:56;12.60;95.00
44607;DHT22;30315;46.072;14.474;2022-11-18T05:06:23;12.70;95.10
44607;DHT22;30315;46.072;14.474;2022-11-18T05:08:50;12.70;95.00
44607;DHT22;30315;46.072;14.474;2022-11-18T05:11:16;12.60;94.60
44607;DHT22;30315;46.072;14.474;2022-11-18T05:14:02;12.60;94.40
44607;DHT22;30315;46.072;14.474;2022-11-18T05:16:29;12.60;94.10
44607;DHT22;30315;46.072;14.474;2022-11-18T05:18:56;12.50;94.00
44607;DHT22;30315;46.072;14.474;2022-11-18T05:21:23;12.50;93.90
44607;DHT22;30315;46.072;14.474;2022-11-18T05:23:57;12.50;94.00
44607;DHT22;30315;46.072;14.474;2022-11-18T05:26:27;12.50;93.90
44607;DHT22;30315;46.072;14.474;2022-11-18T05:28:56;12.50;93.90
44607;DHT22;30315;46.072;14.474;2022-11-18T05:31:26;12.60;93.90
44607;DHT22;30315;46.072;14.474;2022-11-18T05:33:53;12.60;93.90
44607;DHT22;30315;46.072;14.474;2022-11-18T05:36:26;12.60;93.70
44607;DHT22;30315;46.072;14.474;2022-11-18T05:38:52;12.50;93.70
44607;DHT22;30315;46.072;14.474;2022-11-18T05:41:19;12.50;93.70
44607;DHT22;30315;46.072;14.474;2022-11-18T05:44:05;12.50;93.90
44607;DHT22;30315;46.072;14.474;2022-11-18T05:46:46;12.50;93.80
44607;DHT22;30315;46.072;14.474;2022-11-18T05:49:16;12.50;93.90
44607;DHT22;30315;46.072;14.474;2022-11-18T05:51:43;12.50;93.90
44607;DHT22;30315;46.072;14.474;2022-11-18T05:54:10;12.50;94.00
44607;DHT22;30315;46.072;14.474;2022-11-18T05:56:41;12.60;94.10
44607;DHT22;30315;46.072;14.474;2022-11-18T05:59:10;12.60;94.10
44607;DHT22;30315;46.072;14.474;2022-11-18T06:01:38;12.60;94.10
44607;DHT22;30315;46.072;14.474;2022-11-18T06:04:15;12.70;94.20
44607;DHT22;30315;46.072;14.474;2022-11-18T06:06:43;12.70;94.10
44607;DHT22;30315;46.072;14.474;2022-11-18T06:09:14;12.60;94.00
44607;DHT22;30315;46.072;14.474;2022-11-18T06:11:44;12.70;94.00
44607;DHT22;30315;46.072;14.474;2022-11-18T06:14:22;12.70;94.10
44607;DHT22;30315;46.072;14.474;2022-11-18T06:16:52;12.70;94.20
44607;DHT22;30315;46.072;14.474;2022-11-18T06:19:24;12.20;94.20
44607;DHT22;30315;46.072;14.474;2022-11-18T06:21:54;12.80;94.70
44607;DHT22;30315;46.072;14.474;2022-11-18T06:24:21;12.80;94.80
44607;DHT22;30315;46.072;14.474;2022-11-18T06:27:12;12.80;94.80
44607;DHT22;30315;46.072;14.474;2022-11-18T06:29:50;12.90;94.80
44607;DHT22;30315;46.072;14.474;2022-11-18T06:32:17;12.90;94.50
44607;DHT22;30315;46.072;14.474;2022-11-18T06:34:51;13.40;94.60
44607;DHT22;30315;46.072;14.474;2022-11-18T06:37:25;13.00;94.40
44607;DHT22;30315;46.072;14.474;2022-11-18T06:39:52;12.90;94.30
44607;DHT22;30315;46.072;14.474;2022-11-18T06:42:19;12.90;94.30
44607;DHT22;30315;46.072;14.474;2022-11-18T06:45:05;12.80;94.30
44607;DHT22;30315;46.072;14.474;2022-11-18T06:47:32;12.90;94.40
44607;DHT22;30315;46.072;14.474;2022-11-18T06:49:59;12.90;94.50
44607;DHT22;30315;46.072;14.474;2022-11-18T06:52:26;12.90;94.80
44607;DHT22;30315;46.072;14.474;2022-11-18T06:54:53;13.00;95.20
44607;DHT22;30315;46.072;14.474;2022-11-18T06:57:20;13.00;95.10
44607;DHT22;30315;46.072;14.474;2022-11-18T06:59:46;13.00;94.90
44607;DHT22;30315;46.072;14.474;2022-11-18T07:02:13;13.10;95.00
44607;DHT22;30315;46.072;14.474;2022-11-18T07:04:40;13.10;95.10
44607;DHT22;30315;46.072;14.474;2022-11-18T07:07:07;13.10;95.50
44607;DHT22;30315;46.072;14.474;2022-11-18T07:09:34;13.10;95.30
44607;DHT22;30315;46.072;14.474;2022-11-18T07:12:02;13.20;95.30
44607;DHT22;30315;46.072;14.474;2022-11-18T07:14:29;13.20;95.40
44607;DHT22;30315;46.072;14.474;2022-11-18T07:16:56;13.20;95.20
44607;DHT22;30315;46.072;14.474;2022-11-18T07:19:22;13.30;95.20
44607;DHT22;30315;46.072;14.474;2022-11-18T07:21:49;13.20;95.00
44607;DHT22;30315;46.072;14.474;2022-11-18T07:24:16;13.30;95.00
44607;DHT22;30315;46.072;14.474;2022-11-18T07:26:43;13.20;94.90
44607;DHT22;30315;46.072;14.474;2022-11-18T07:29:10;13.20;94.90
44607;DHT22;30315;46.072;14.474;2022-11-18T07:31:37;13.20;94.90
44607;DHT22;30315;46.072;14.474;2022-11-18T07:34:05;12.80;94.80
44607;DHT22;30315;46.072;14.474;2022-11-18T07:36:33;13.10;95.00
44607;DHT22;30315;46.072;14.474;2022-11-18T07:39:03;13.20;95.00
44607;DHT22;30315;46.072;14.474;2022-11-18T07:41:31;13.20;95.10
44607;DHT22;30315;46.072;14.474;2022-11-18T07:43:58;13.20;95.20
44607;DHT22;30315;46.072;14.474;2022-11-18T07:46:28;13.20;95.30
44607;DHT22;30315;46.072;14.474;2022-11-18T07:48:56;13.20;95.20
44607;DHT22;30315;46.072;14.474;2022-11-18T07:51:24;13.20;95.20
44607;DHT22;30315;46.072;14.474;2022-11-18T07:53:51;13.30;95.20
44607;DHT22;30315;46.072;14.474;2022-11-18T07:56:18;13.30;95.30
44607;DHT22;30315;46.072;14.474;2022-11-18T07:58:46;13.30;95.40
44607;DHT22;30315;46.072;14.474;2022-11-18T08:01:15;13.40;95.40
44607;DHT22;30315;46.072;14.474;2022-11-18T08:03:42;13.40;95.50
44607;DHT22;30315;46.072;14.474;2022-11-18T08:06:10;13.40;95.40
44607;DHT22;30315;46.072;14.474;2022-11-18T08:08:40;13.40;95.30
44607;DHT22;30315;46.072;14.474;2022-11-18T08:11:08;13.40;95.20
44607;DHT22;30315;46.072;14.474;2022-11-18T08:13:35;13.40;95.00
44607;DHT22;30315;46.072;14.474;2022-11-18T08:16:02;13.40;94.80
44607;DHT22;30315;46.072;14.474;2022-11-18T08:18:30;13.40;94.80
44607;DHT22;30315;46.072;14.474;2022-11-18T08:21:01;13.40;94.80
44607;DHT22;30315;46.072;14.474;2022-11-18T08:23:28;13.40;94.80
44607;DHT22;30315;46.072;14.474;2022-11-18T08:26:03;13.40;94.80
44607;DHT22;30315;46.072;14.474;2022-11-18T08:28:31;13.40;94.80
44607;DHT22;30315;46.072;14.474;2022-11-18T08:30:58;13.50;94.70
44607;DHT22;30315;46.072;14.474;2022-11-18T08:33:25;13.50;94.60
44607;DHT22;30315;46.072;14.474;2022-11-18T08:35:51;13.50;94.60
44607;DHT22;30315;46.072;14.474;2022-11-18T08:38:18;13.50;94.70
44607;DHT22;30315;46.072;14.474;2022-11-18T08:40:45;13.50;94.80
44607;DHT22;30315;46.072;14.474;2022-11-18T08:43:13;13.50;94.90
44607;DHT22;30315;46.072;14.474;2022-11-18T08:45:40;13.60;95.00
44607;DHT22;30315;46.072;14.474;2022-11-18T08:48:07;13.60;95.00
44607;DHT22;30315;46.072;14.474;2022-11-18T08:50:34;13.60;95.00
44607;DHT22;30315;46.072;14.474;2022-11-18T08:53:01;13.70;95.00
44607;DHT22;30315;46.072;14.474;2022-11-18T08:55:28;13.70;95.10
44607;DHT22;30315;46.072;14.474;2022-11-18T08:57:54;13.80;95.00
44607;DHT22;30315;46.072;14.474;2022-11-18T09:00:21;13.60;94.70
44607;DHT22;30315;46.072;14.474;2022-11-18T09:02:48;13.90;94.70
44607;DHT22;30315;46.072;14.474;2022-11-18T09:05:15;13.90;94.40
44607;DHT22;30315;46.072;14.474;2022-11-18T09:07:42;13.90;94.20
44607;DHT22;30315;46.072;14.474;2022-11-18T09:10:09;13.90;93.90
44607;DHT22;30315;46.072;14.474;2022-11-18T09:12:36;13.90;93.90
44607;DHT22;30315;46.072;14.474;2022-11-18T09:15:03;13.90;93.90
44607;DHT22;30315;46.072;14.474;2022-11-18T09:17:39;13.90;93.90
44607;DHT22;30315;46.072;14.474;2022-11-18T09:20:07;14.00;93.80
44607;DHT22;30315;46.072;14.474;2022-11-18T09:22:35;13.90;93.50
44607;DHT22;30315;46.072;14.474;2022-11-18T09:25:02;13.90;93.20
44607;DHT22;30315;46.072;14.474;2022-11-18T09:27:29;13.90;93.40
44607;DHT22;30315;46.072;14.474;2022-11-18T09:29:55;13.90;93.50
44607;DHT22;30315;46.072;14.474;2022-11-18T09:32:23;13.90;93.20
44607;DHT22;30315;46.072;14.474;2022-11-18T09:34:50;14.10;93.10
44607;DHT22;30315;46.072;14.474;2022-11-18T09:37:16;13.80;93.00
44607;DHT22;30315;46.072;14.474;2022-11-18T09:39:43;13.80;93.20
44607;DHT22;30315;46.072;14.474;2022-11-18T09:47:49;13.70;93.30
44607;DHT22;30315;46.072;14.474;2022-11-18T09:50:18;13.80;93.60
44607;DHT22;30315;46.072;14.474;2022-11-18T09:53:17;13.70;93.70
44607;DHT22;30315;46.072;14.474;2022-11-18T09:55:44;13.70;93.90
44607;DHT22;30315;46.072;14.474;2022-11-18T09:58:55;13.70;94.10
44607;DHT22;30315;46.072;14.474;2022-11-18T10:01:03;13.70;94.30
44607;DHT22;30315;46.072;14.474;2022-11-18T10:03:36;13.80;94.40
44607;DHT22;30315;46.072;14.474;2022-11-18T10:08:54;13.80;94.70
44607;DHT22;30315;46.072;14.474;2022-11-18T10:11:24;13.80;94.80
44607;DHT22;30315;46.072;14.474;2022-11-18T10:24:29;13.80;94.70
44607;DHT22;30315;46.072;14.474;2022-11-18T10:26:58;13.80;94.60
44607;DHT22;30315;46.072;14.474;2022-11-18T10:29:25;13.70;94.50
44607;DHT22;30315;46.072;14.474;2022-11-18T10:34:23;13.70;94.50
44607;DHT22;30315;46.072;14.474;2022-11-18T10:39:26;13.70;94.90
44607;DHT22;30315;46.072;14.474;2022-11-18T10:41:56;13.80;94.50
44607;DHT22;30315;46.072;14.474;2022-11-18T10:44:28;13.80;94.90
44607;DHT22;30315;46.072;14.474;2022-11-18T10:47:05;13.90;94.80
44607;DHT22;30315;46.072;14.474;2022-11-18T10:49:40;13.80;94.60
44607;DHT22;30315;46.072;14.474;2022-11-18T10:52:08;13.80;94.60
44607;DHT22;30315;46.072;14.474;2022-11-18T10:54:36;13.90;94.70
44607;DHT22;30315;46.072;14.474;2022-11-18T11:04:50;13.90;95.00
44607;DHT22;30315;46.072;14.474;2022-11-18T11:10:05;13.90;95.00
44607;DHT22;30315;46.072;14.474;2022-11-18T11:12:42;13.90;95.20
44607;DHT22;30315;46.072;14.474;2022-11-18T11:15:17;13.90;95.10
44607;DHT22;30315;46.072;14.474;2022-11-18T11:17:47;13.70;95.10
44607;DHT22;30315;46.072;14.474;2022-11-18T11:20:36;13.90;95.30
44607;DHT22;30315;46.072;14.474;2022-11-18T11:23:13;14.20;95.40
44607;DHT22;30315;46.072;14.474;2022-11-18T11:39:54;14.00;95.40
44607;DHT22;30315;46.072;14.474;2022-11-18T12:00:40;13.90;95.30
44607;DHT22;30315;46.072;14.474;2022-11-18T12:05:55;13.90;95.10
44607;DHT22;30315;46.072;14.474;2022-11-18T12:08:23;13.80;95.20
44607;DHT22;30315;46.072;14.474;2022-11-18T12:11:02;13.80;95.30
44607;DHT22;30315;46.072;14.474;2022-11-18T12:14:01;13.70;95.40
44607;DHT22;30315;46.072;14.474;2022-11-18T12:17:13;13.70;95.60
44607;DHT22;30315;46.072;14.474;2022-11-18T12:19:21;13.70;95.80
44607;DHT22;30315;46.072;14.474;2022-11-18T12:29:59;13.70;96.30
44607;DHT22;30315;46.072;14.474;2022-11-18T12:35:02;13.60;95.10
44607;DHT22;30315;46.072;14.474;2022-11-18T12:42:40;13.50;94.70
44607;DHT22;30315;46.072;14.474;2022-11-18T12:45:47;13.50;94.90
44607;DHT22;30315;46.072;14.474;2022-11-18T12:50:55;13.50;94.70
44607;DHT22;30315;46.072;14.474;2022-11-18T12:53:35;13.50;94.90
44607;DHT22;30315;46.072;14.474;2022-11-18T12:56:17;13.60;95.30
44607;DHT22;30315;46.072;14.474;2022-11-18T12:58:55;13.70;95.40
44607;DHT22;30315;46.072;14.474;2022-11-18T13:01:38;13.70;95.50
44607;DHT22;30315;46.072;14.474;2022-11-18T13:05:32;13.70;95.50
44607;DHT22;30315;46.072;14.474;2022-11-18T13:08:02;13.70;95.40
44607;DHT22;30315;46.072;14.474;2022-11-18T13:10:48;13.70;95.20
44607;DHT22;30315;46.072;14.474;2022-11-18T13:13:30;13.70;94.90
44607;DHT22;30315;46.072;14.474;2022-11-18T13:16:45;13.70;94.50
44607;DHT22;30315;46.072;14.474;2022-11-18T13:19:34;13.60;94.20
44607;DHT22;30315;46.072;14.474;2022-11-18T13:25:32;13.60;94.00
44607;DHT22;30315;46.072;14.474;2022-11-18T13:28:18;13.80;94.30
44607;DHT22;30315;46.072;14.474;2022-11-18T13:30:50;13.50;94.30
44607;DHT22;30315;46.072;14.474;2022-11-18T13:33:19;13.60;94.40
44607;DHT22;30315;46.072;14.474;2022-11-18T13:35:49;13.70;94.50
44607;DHT22;30315;46.072;14.474;2022-11-18T13:38:18;13.60;94.60
44607;DHT22;30315;46.072;14.474;2022-11-18T13:40:53;13.60;94.60
44607;DHT22;30315;46.072;14.474;2022-11-18T13:43:38;13.60;94.70
44607;DHT22;30315;46.072;14.474;2022-11-18T13:46:07;13.60;94.70
44607;DHT22;30315;46.072;14.474;2022-11-18T13:48:36;13.60;94.70
44607;DHT22;30315;46.072;14.474;2022-11-18T13:51:04;13.60;94.80
44607;DHT22;30315;46.072;14.474;2022-11-18T13:53:35;13.50;94.90
44607;DHT22;30315;46.072;14.474;2022-11-18T13:56:06;13.50;94.90
44607;DHT22;30315;46.072;14.474;2022-11-18T13:58:40;13.60;95.00
44607;DHT22;30315;46.072;14.474;2022-11-18T14:01:29;13.50;94.90
44607;DHT22;30315;46.072;14.474;2022-11-18T14:04:00;13.60;94.90
44607;DHT22;30315;46.072;14.474;2022-11-18T14:06:28;13.70;94.80
44607;DHT22;30315;46.072;14.474;2022-11-18T14:09:05;13.50;94.70
44607;DHT22;30315;46.072;14.474;2022-11-18T14:11:34;13.40;94.80
44607;DHT22;30315;46.072;14.474;2022-11-18T14:14:01;13.50;95.00
44607;DHT22;30315;46.072;14.474;2022-11-18T14:16:30;13.50;95.10
44607;DHT22;30315;46.072;14.474;2022-11-18T14:18:57;13.40;94.90
44607;DHT22;30315;46.072;14.474;2022-11-18T14:21:28;13.40;94.70
44607;DHT22;30315;46.072;14.474;2022-11-18T14:23:55;13.50;94.80
44607;DHT22;30315;46.072;14.474;2022-11-18T14:26:29;13.40;94.80
44607;DHT22;30315;46.072;14.474;2022-11-18T14:28:58;13.40;94.80
44607;DHT22;30315;46.072;14.474;2022-11-18T14:31:26;13.30;94.80
44607;DHT22;30315;46.072;14.474;2022-11-18T14:36:49;13.30;95.10
44607;DHT22;30315;46.072;14.474;2022-11-18T14:42:13;13.30;95.20
44607;DHT22;30315;46.072;14.474;2022-11-18T14:52:27;12.90;91.40
44607;DHT22;30315;46.072;14.474;2022-11-18T14:54:54;13.10;92.40
44607;DHT22;30315;46.072;14.474;2022-11-18T14:57:21;13.00;92.90
44607;DHT22;30315;46.072;14.474;2022-11-18T14:59:47;13.10;93.20
44607;DHT22;30315;46.072;14.474;2022-11-18T15:02:15;13.10;93.20
44607;DHT22;30315;46.072;14.474;2022-11-18T15:04:42;13.10;93.10
44607;DHT22;30315;46.072;14.474;2022-11-18T15:07:12;13.10;93.10
44607;DHT22;30315;46.072;14.474;2022-11-18T15:09:48;13.10;93.10
44607;DHT22;30315;46.072;14.474;2022-11-18T15:12:15;13.10;93.20
44607;DHT22;30315;46.072;14.474;2022-11-18T15:14:42;13.10;93.30
44607;DHT22;30315;46.072;14.474;2022-11-18T15:17:09;13.30;93.20
44607;DHT22;30315;46.072;14.474;2022-11-18T15:19:37;13.00;92.60
44607;DHT22;30315;46.072;14.474;2022-11-18T15:22:06;13.10;92.60
44607;DHT22;30315;46.072;14.474;2022-11-18T15:24:33;13.10;92.50
44607;DHT22;30315;46.072;14.474;2022-11-18T15:27:00;13.10;92.50
44607;DHT22;30315;46.072;14.474;2022-11-18T15:29:31;13.00;92.60
44607;DHT22;30315;46.072;14.474;2022-11-18T15:31:58;13.00;92.70
44607;DHT22;30315;46.072;14.474;2022-11-18T15:34:25;13.10;92.80
44607;DHT22;30315;46.072;14.474;2022-11-18T15:36:52;13.00;92.70
44607;DHT22;30315;46.072;14.474;2022-11-18T15:39:19;13.00;92.60
44607;DHT22;30315;46.072;14.474;2022-11-18T15:41:46;13.00;92.80
44607;DHT22;30315;46.072;14.474;2022-11-18T15:44:13;13.10;93.00
44607;DHT22;30315;46.072;14.474;2022-11-18T15:46:42;12.90;93.00
44607;DHT22;30315;46.072;14.474;2022-11-18T15:49:11;12.90;93.10
44607;DHT22;30315;46.072;14.474;2022-11-18T15:51:39;12.90;93.10
44607;DHT22;30315;46.072;14.474;2022-11-18T15:54:06;12.90;93.10
44607;DHT22;30315;46.072;14.474;2022-11-18T15:56:33;12.90;92.90
44607;DHT22;30315;46.072;14.474;2022-11-18T15:59:01;12.90;93.10
44607;DHT22;30315;46.072;14.474;2022-11-18T16:01:32;12.50;93.10
44607;DHT22;30315;46.072;14.474;2022-11-18T16:04:03;12.80;93.40
44607;DHT22;30315;46.072;14.474;2022-11-18T16:06:30;12.80;93.70
44607;DHT22;30315;46.072;14.474;2022-11-18T16:08:58;12.90;93.80
44607;DHT22;30315;46.072;14.474;2022-11-18T16:11:26;12.90;93.70
44607;DHT22;30315;46.072;14.474;2022-11-18T16:14:13;12.80;93.60
44607;DHT22;30315;46.072;14.474;2022-11-18T16:16:40;12.90;93.60
44607;DHT22;30315;46.072;14.474;2022-11-18T16:19:09;12.90;93.60
44607;DHT22;30315;46.072;14.474;2022-11-18T16:21:38;12.80;93.60
44607;DHT22;30315;46.072;14.474;2022-11-18T16:24:06;12.80;93.60
44607;DHT22;30315;46.072;14.474;2022-11-18T16:26:34;12.80;93.70
44607;DHT22;30315;46.072;14.474;2022-11-18T16:29:03;12.80;93.80
44607;DHT22;30315;46.072;14.474;2022-11-18T16:31:30;12.80;93.90
44607;DHT22;30315;46.072;14.474;2022-11-18T16:34:19;12.90;93.70
44607;DHT22;30315;46.072;14.474;2022-11-18T16:36:47;12.80;93.60
44607;DHT22;30315;46.072;14.474;2022-11-18T16:39:15;12.80;93.70
44607;DHT22;30315;46.072;14.474;2022-11-18T16:41:43;12.80;93.80
44607;DHT22;30315;46.072;14.474;2022-11-18T16:44:11;12.80;93.80
44607;DHT22;30315;46.072;14.474;2022-11-18T16:46:39;12.70;93.70
44607;DHT22;30315;46.072;14.474;2022-11-18T16:49:09;12.70;93.70
44607;DHT22;30315;46.072;14.474;2022-11-18T16:51:37;12.60;93.80
44607;DHT22;30315;46.072;14.474;2022-11-18T16:54:05;12.70;93.80
44607;DHT22;30315;46.072;14.474;2022-11-18T16:56:35;12.70;94.00
44607;DHT22;30315;46.072;14.474;2022-11-18T16:59:03;12.70;93.90
44607;DHT22;30315;46.072;14.474;2022-11-18T17:01:30;12.60;94.00
44607;DHT22;30315;46.072;14.474;2022-11-18T17:03:58;12.60;94.10
44607;DHT22;30315;46.072;14.474;2022-11-18T17:06:27;12.60;94.10
44607;DHT22;30315;46.072;14.474;2022-11-18T17:08:55;12.60;94.10
44607;DHT22;30315;46.072;14.474;2022-11-18T17:11:22;12.50;94.30
44607;DHT22;30315;46.072;14.474;2022-11-18T17:13:49;12.60;94.30
44607;DHT22;30315;46.072;14.474;2022-11-18T17:16:23;12.60;94.10
44607;DHT22;30315;46.072;14.474;2022-11-18T17:18:59;12.50;94.10
44607;DHT22;30315;46.072;14.474;2022-11-18T17:21:27;12.50;93.80
44607;DHT22;30315;46.072;14.474;2022-11-18T17:23:57;12.50;93.70
44607;DHT22;30315;46.072;14.474;2022-11-18T17:26:25;12.50;93.50
44607;DHT22;30315;46.072;14.474;2022-11-18T17:28:56;12.50;93.30
44607;DHT22;30315;46.072;14.474;2022-11-18T17:31:23;12.40;93.30
44607;DHT22;30315;46.072;14.474;2022-11-18T17:33:51;12.50;93.20
44607;DHT22;30315;46.072;14.474;2022-11-18T17:36:19;12.40;93.10
44607;DHT22;30315;46.072;14.474;2022-11-18T17:38:48;12.30;93.10
44607;DHT22;30315;46.072;14.474;2022-11-18T17:41:16;12.30;93.20
44607;DHT22;30315;46.072;14.474;2022-11-18T17:44:03;12.30;93.30
44607;DHT22;30315;46.072;14.474;2022-11-18T17:46:30;12.30;93.30
44607;DHT22;30315;46.072;14.474;2022-11-18T17:49:05;12.20;92.90
44607;DHT22;30315;46.072;14.474;2022-11-18T17:51:32;12.20;92.70
44607;DHT22;30315;46.072;14.474;2022-11-18T17:53:59;12.20;92.70
44607;DHT22;30315;46.072;14.474;2022-11-18T17:56:45;12.10;92.60